createdAt,value
2018-01-29T17:14:39.879Z,7.60
2018-01-29T17:15:39.845Z,7.30
2018-01-29T17:16:39.865Z,7.70
2018-01-29T17:17:40.246Z,7.40
2018-01-29T17:18:39.843Z,8.10
2018-01-29T17:19:39.850Z,7.40
2018-01-29T17:20:39.856Z,7.90
2018-01-29T17:21:39.862Z,7.10
2018-01-29T17:22:39.963Z,7.70
2018-01-29T17:23:39.862Z,7.30
2018-01-29T17:24:39.872Z,7.60
2018-01-29T17:25:39.924Z,8.00
2018-01-29T17:26:39.943Z,8.00
2018-01-29T17:27:39.874Z,7.30
2018-01-29T17:28:39.911Z,8.00
2018-01-29T17:29:39.904Z,8.40
2018-01-29T17:30:40.059Z,7.90
2018-01-29T17:31:39.906Z,7.60
2018-01-29T17:32:39.879Z,8.20
2018-01-29T17:33:39.890Z,8.10
2018-01-29T17:34:39.921Z,8.50
2018-01-29T17:35:39.919Z,7.70
2018-01-29T17:36:39.869Z,7.80
2018-01-29T17:37:39.909Z,8.60
2018-01-29T17:38:39.925Z,9.00
2018-01-29T17:39:39.927Z,8.90
2018-01-29T17:40:39.888Z,9.20
2018-01-29T17:41:40.074Z,8.30
2018-01-29T17:43:39.911Z,9.00
2018-01-29T17:44:39.900Z,9.10
2018-01-29T17:45:40.003Z,9.40
2018-01-29T17:46:39.935Z,9.20
2018-01-29T17:47:39.888Z,9.10
2018-01-29T17:48:39.911Z,10.00
2018-01-29T17:49:39.921Z,9.90
2018-01-29T17:50:39.956Z,9.80
2018-01-29T17:51:39.956Z,10.30
2018-01-29T17:52:39.961Z,10.50
2018-01-29T17:53:39.919Z,9.80
2018-01-29T17:54:39.951Z,9.60
2018-01-29T17:55:39.944Z,10.10
2018-01-29T17:56:39.921Z,9.50
2018-01-29T17:57:39.914Z,10.10
2018-01-29T17:58:39.950Z,9.80
2018-01-29T17:59:39.948Z,10.30
2018-01-29T18:00:39.939Z,9.40
2018-01-29T18:01:39.912Z,10.00
2018-01-29T18:02:39.940Z,10.20
2018-01-29T18:03:39.985Z,10.30
2018-01-29T18:04:39.993Z,9.50
2018-01-29T18:05:39.944Z,9.60
2018-01-29T18:06:39.943Z,9.40
2018-01-29T18:07:39.985Z,10.10
2018-01-29T18:08:39.987Z,10.40
2018-01-29T18:09:40.656Z,10.50
2018-01-29T18:10:40.177Z,10.50
2018-01-29T18:13:13.126Z,9.40
2018-01-29T18:14:13.204Z,10.00
2018-01-29T18:15:12.899Z,9.60
2018-01-29T18:16:13.154Z,9.80
2018-01-29T18:17:12.889Z,9.90
2018-01-29T18:18:12.876Z,9.50
2018-01-29T18:19:12.988Z,9.50
2018-01-29T18:20:12.923Z,8.90
2018-01-29T18:21:12.956Z,13.10
2018-01-29T18:22:12.897Z,27.50
2018-01-29T18:23:12.884Z,11.80
2018-01-29T18:24:12.920Z,10.00
2018-01-29T18:25:12.889Z,8.40
2018-01-29T18:26:12.893Z,7.80
2018-01-29T18:27:12.931Z,7.70
2018-01-29T18:28:12.915Z,7.70
2018-01-29T18:29:12.942Z,7.10
2018-01-29T18:30:12.903Z,7.10
2018-01-29T18:31:12.920Z,6.50
2018-01-29T18:32:12.901Z,6.20
2018-01-29T18:33:12.919Z,5.80
2018-01-29T18:34:12.916Z,5.50
2018-01-29T18:35:12.953Z,5.30
2018-01-29T18:36:12.928Z,4.10
2018-01-29T18:37:12.947Z,2.90
2018-01-29T18:38:12.941Z,3.10
2018-01-29T18:39:12.954Z,3.00
2018-01-29T18:40:12.925Z,2.60
2018-01-29T18:41:12.935Z,2.60
2018-01-29T18:42:12.955Z,2.90
2018-01-29T18:43:12.945Z,3.10
2018-01-29T18:44:12.912Z,3.10
2018-01-29T18:45:12.950Z,3.10
2018-01-29T18:46:12.973Z,3.20
2018-01-29T18:47:12.959Z,3.60
2018-01-29T18:48:12.995Z,3.40
2018-01-29T18:49:12.934Z,2.70
2018-01-29T18:50:13.533Z,2.80
2018-01-29T18:51:12.983Z,2.50
2018-01-29T18:52:12.942Z,2.70
2018-01-29T18:53:13.053Z,2.30
2018-01-29T18:54:12.997Z,2.20
2018-01-29T18:55:12.959Z,2.40
2018-01-29T18:56:12.975Z,2.30
2018-01-29T18:57:12.961Z,2.40
2018-01-29T18:58:13.009Z,2.30
2018-01-29T18:59:12.950Z,1.90
2018-01-29T19:00:12.940Z,2.20
2018-01-29T19:01:12.931Z,1.90
2018-01-29T19:02:12.945Z,2.10
2018-01-29T19:03:12.942Z,2.20
2018-01-29T19:04:12.997Z,2.70
2018-01-29T19:05:12.952Z,2.50
2018-01-29T19:06:13.020Z,2.10
2018-01-29T19:07:12.953Z,2.20
2018-01-29T19:08:12.951Z,2.40
2018-01-29T19:09:12.970Z,2.20
2018-01-29T19:10:12.967Z,2.50
2018-01-29T19:11:12.972Z,2.50
2018-01-29T19:12:13.000Z,2.50
2018-01-29T19:13:12.959Z,2.30
2018-01-29T19:14:12.991Z,2.50
2018-01-29T19:15:12.982Z,2.50
2018-01-29T19:16:12.956Z,2.90
2018-01-29T19:17:12.985Z,2.60
2018-01-29T19:18:13.018Z,2.50
2018-01-29T19:19:13.008Z,2.60
2018-01-29T19:20:13.017Z,3.10
2018-01-29T19:21:13.002Z,2.60
2018-01-29T19:22:12.962Z,3.20
2018-01-29T19:23:12.965Z,2.80
2018-01-29T19:24:12.989Z,2.70
2018-01-29T19:25:13.002Z,2.70
2018-01-29T19:26:12.987Z,2.80
2018-01-29T19:27:12.988Z,2.90
2018-01-29T19:28:13.005Z,2.70
2018-01-29T19:29:13.016Z,3.20
2018-01-29T19:30:13.041Z,2.70
2018-01-29T19:31:12.974Z,3.00
2018-01-29T19:32:12.995Z,2.20
2018-01-29T19:33:12.966Z,2.10
2018-01-29T19:34:12.996Z,2.50
2018-01-29T19:35:12.982Z,2.70
2018-01-29T19:36:13.021Z,2.20
2018-01-29T19:37:13.008Z,2.20
2018-01-29T19:38:13.034Z,1.70
2018-01-29T19:39:12.991Z,2.00
2018-01-29T19:40:12.978Z,1.60
2018-01-29T19:41:13.001Z,1.60
2018-01-29T19:42:12.987Z,1.40
2018-01-29T19:43:13.052Z,1.70
2018-01-29T19:44:13.031Z,1.60
2018-01-29T19:45:12.998Z,1.60
2018-01-29T19:46:13.023Z,1.40
2018-01-29T19:47:13.022Z,1.50
2018-01-29T19:48:13.047Z,1.30
2018-01-29T19:49:13.037Z,1.30
2018-01-29T19:50:13.067Z,1.50
2018-01-29T19:51:13.080Z,1.30
2018-01-29T19:52:13.018Z,1.20
2018-01-29T19:53:13.039Z,1.40
2018-01-29T19:54:13.072Z,1.20
2018-01-29T19:55:13.046Z,1.20
2018-01-29T19:56:13.026Z,1.30
2018-01-29T19:57:13.049Z,1.30
2018-01-29T19:58:13.030Z,1.40
2018-01-29T19:59:13.001Z,1.30
2018-01-29T20:00:13.013Z,1.50
2018-01-29T20:01:13.198Z,1.30
2018-01-29T20:02:13.023Z,1.40
2018-01-29T20:03:13.012Z,1.70
2018-01-29T20:04:13.048Z,1.40
2018-01-29T20:05:13.004Z,1.60
2018-01-29T20:06:13.017Z,1.60
2018-01-29T20:07:13.116Z,1.90
2018-01-29T20:08:13.023Z,1.70
2018-01-29T20:09:13.054Z,1.50
2018-01-29T20:10:13.020Z,1.90
2018-01-29T20:11:13.022Z,1.60
2018-01-29T20:12:13.016Z,2.00
2018-01-29T20:13:13.024Z,1.60
2018-01-29T20:14:13.083Z,1.70
2018-01-29T20:15:13.556Z,1.70
2018-01-29T20:16:13.016Z,2.20
2018-01-29T20:17:13.014Z,2.10
2018-01-29T20:18:13.074Z,2.20
2018-01-29T20:19:13.055Z,2.10
2018-01-29T20:20:13.047Z,2.40
2018-01-29T20:21:13.055Z,1.80
2018-01-29T20:22:13.048Z,1.90
2018-01-29T20:23:13.048Z,1.90
2018-01-29T20:24:13.061Z,2.20
2018-01-29T20:25:13.029Z,2.00
2018-01-29T20:26:13.049Z,2.10
2018-01-29T20:27:13.059Z,2.10
2018-01-29T20:28:13.088Z,2.40
2018-01-29T20:29:13.081Z,2.40
2018-01-29T20:30:13.108Z,2.60
2018-01-29T20:31:13.037Z,2.30
2018-01-29T20:32:13.055Z,2.80
2018-01-29T20:33:13.036Z,2.40
2018-01-29T20:34:13.039Z,2.60
2018-01-29T20:35:13.079Z,2.20
2018-01-29T20:36:13.054Z,2.10
2018-01-29T20:37:13.050Z,2.40
2018-01-29T20:38:13.046Z,2.10
2018-01-29T20:39:13.059Z,2.40
2018-01-29T20:40:13.055Z,2.60
2018-01-29T20:41:13.181Z,2.20
2018-01-29T20:42:13.044Z,2.90
2018-01-29T20:43:13.098Z,3.30
2018-01-29T20:44:13.045Z,2.40
2018-01-29T20:45:13.096Z,2.70
2018-01-29T20:46:13.061Z,2.80
2018-01-29T20:47:13.112Z,2.60
2018-01-29T20:48:13.132Z,2.80
2018-01-29T20:49:13.086Z,2.70
2018-01-29T20:50:13.081Z,2.60
2018-01-29T20:51:13.121Z,2.60
2018-01-29T20:52:13.044Z,2.60
2018-01-29T20:53:13.075Z,2.70
2018-01-29T20:54:13.090Z,2.70
2018-01-29T20:55:13.094Z,2.30
2018-01-29T20:56:13.089Z,2.40
2018-01-29T20:57:13.084Z,2.70
2018-01-29T20:58:13.105Z,2.80
2018-01-29T20:59:13.069Z,3.10
2018-01-29T21:00:13.065Z,2.30
2018-01-29T21:01:13.087Z,3.00
2018-01-29T21:02:13.085Z,2.60
2018-01-29T21:03:13.083Z,2.60
2018-01-29T21:04:13.061Z,3.20
2018-01-29T21:05:13.123Z,2.70
2018-01-29T21:06:13.076Z,2.40
2018-01-29T21:07:13.084Z,2.60
2018-01-29T21:08:13.116Z,2.30
2018-01-29T21:09:13.065Z,2.90
2018-01-29T21:10:13.090Z,2.60
2018-01-29T21:11:13.069Z,3.00
2018-01-29T21:12:13.133Z,3.00
2018-01-29T21:13:13.118Z,2.80
2018-01-29T21:14:13.109Z,3.00
2018-01-29T21:15:13.102Z,3.10
2018-01-29T21:16:13.118Z,3.00
2018-01-29T21:17:13.155Z,2.80
2018-01-29T21:18:13.087Z,2.80
2018-01-29T21:19:13.068Z,3.10
2018-01-29T21:20:13.072Z,2.80
2018-01-29T21:21:13.081Z,3.40
2018-01-29T21:22:13.077Z,2.70
2018-01-29T21:23:13.131Z,3.00
2018-01-29T21:24:13.174Z,2.70
2018-01-29T21:25:13.110Z,3.00
2018-01-29T21:26:13.095Z,3.30
2018-01-29T21:27:13.075Z,3.10
2018-01-29T21:28:13.160Z,2.90
2018-01-29T21:29:13.088Z,2.70
2018-01-29T21:30:13.125Z,3.10
2018-01-29T21:31:13.089Z,2.60
2018-01-29T21:32:13.128Z,3.10
2018-01-29T21:33:13.097Z,2.70
2018-01-29T21:34:13.090Z,2.40
2018-01-29T21:35:13.084Z,3.00
2018-01-29T21:36:13.109Z,2.70
2018-01-29T21:37:13.102Z,3.10
2018-01-29T21:38:13.103Z,2.60
2018-01-29T21:39:13.107Z,3.10
2018-01-29T21:40:13.090Z,2.80
2018-01-29T21:41:13.126Z,3.00
2018-01-29T21:42:13.108Z,2.80
2018-01-29T21:43:13.091Z,2.90
2018-01-29T21:44:13.129Z,2.80
2018-01-29T21:45:13.113Z,2.60
2018-01-29T21:46:13.088Z,2.90
2018-01-29T21:47:13.103Z,2.90
2018-01-29T21:48:13.573Z,2.50
2018-01-29T21:49:13.117Z,2.70
2018-01-29T21:50:13.097Z,2.90
2018-01-29T21:51:13.162Z,2.80
2018-01-29T21:52:13.152Z,2.60
2018-01-29T21:53:13.107Z,3.50
2018-01-29T21:54:13.148Z,2.80
2018-01-29T21:55:13.145Z,3.00
2018-01-29T21:56:13.125Z,2.40
2018-01-29T21:57:13.097Z,2.40
2018-01-29T21:58:13.124Z,2.70
2018-01-29T21:59:13.141Z,3.30
2018-01-29T22:00:13.160Z,2.90
2018-01-29T22:01:13.117Z,2.40
2018-01-29T22:02:13.198Z,2.40
2018-01-29T22:03:13.410Z,3.20
2018-01-29T22:04:13.123Z,2.70
2018-01-29T22:05:13.129Z,2.50
2018-01-29T22:06:13.112Z,2.50
2018-01-29T22:07:13.121Z,3.00
2018-01-29T22:08:13.177Z,2.80
2018-01-29T22:09:13.127Z,2.80
2018-01-29T22:10:13.113Z,2.80
2018-01-29T22:11:13.142Z,2.80
2018-01-29T22:12:13.145Z,2.80
2018-01-29T22:13:13.147Z,2.90
2018-01-29T22:14:13.173Z,3.30
2018-01-29T22:15:13.210Z,3.50
2018-01-29T22:16:13.111Z,3.20
2018-01-29T22:17:13.143Z,3.10
2018-01-29T22:18:13.113Z,3.10
2018-01-29T22:19:13.106Z,3.10
2018-01-29T22:20:13.108Z,2.90
2018-01-29T22:21:13.117Z,3.00
2018-01-29T22:22:13.104Z,2.90
2018-01-29T22:23:13.129Z,3.30
2018-01-29T22:24:13.137Z,3.40
2018-01-29T22:25:13.162Z,3.60
2018-01-29T22:26:13.145Z,3.00
2018-01-29T22:27:13.152Z,2.80
2018-01-29T22:28:13.164Z,3.30
2018-01-29T22:29:13.141Z,3.20
2018-01-29T22:30:13.162Z,3.20
2018-01-29T22:31:13.160Z,3.00
2018-01-29T22:32:13.137Z,3.00
2018-01-29T22:33:13.121Z,3.30
2018-01-29T22:34:13.189Z,3.20
2018-01-29T22:35:13.163Z,3.00
2018-01-29T22:36:13.134Z,3.20
2018-01-29T22:37:13.149Z,3.60
2018-01-29T22:38:13.116Z,3.30
2018-01-29T22:39:13.166Z,3.10
2018-01-29T22:40:13.121Z,3.30
2018-01-29T22:41:13.165Z,3.20
2018-01-29T22:42:14.088Z,3.20
2018-01-29T22:43:13.168Z,3.20
2018-01-29T22:44:13.133Z,2.90
2018-01-29T22:45:13.132Z,3.10
2018-01-29T22:46:13.141Z,3.80
2018-01-29T22:47:13.128Z,3.40
2018-01-29T22:48:13.117Z,3.20
2018-01-29T22:49:13.125Z,3.30
2018-01-29T22:50:13.112Z,3.50
2018-01-29T22:51:13.134Z,3.20
2018-01-29T22:52:13.120Z,2.90
2018-01-29T22:53:13.159Z,3.20
2018-01-29T22:54:13.159Z,3.20
2018-01-29T22:55:13.144Z,3.10
2018-01-29T22:56:13.134Z,3.00
2018-01-29T22:57:13.185Z,3.20
2018-01-29T22:58:13.173Z,3.20
2018-01-29T22:59:13.153Z,3.40
2018-01-29T23:00:14.087Z,3.50
2018-01-29T23:01:13.129Z,3.30
2018-01-29T23:02:13.120Z,3.70
2018-01-29T23:03:13.143Z,2.80
2018-01-29T23:04:13.134Z,3.00
2018-01-29T23:05:13.192Z,3.50
2018-01-29T23:06:13.161Z,3.30
2018-01-29T23:07:13.126Z,4.00
2018-01-29T23:08:13.128Z,3.10
2018-01-29T23:09:13.157Z,3.00
2018-01-29T23:10:13.131Z,3.20
2018-01-29T23:11:13.133Z,3.30
2018-01-29T23:12:13.142Z,3.60
2018-01-29T23:13:13.178Z,3.60
2018-01-29T23:14:13.197Z,3.30
2018-01-29T23:15:13.173Z,3.00
2018-01-29T23:16:13.147Z,3.10
2018-01-29T23:17:13.157Z,3.20
2018-01-29T23:18:13.159Z,3.50
2018-01-29T23:19:13.129Z,3.90
2018-01-29T23:20:13.150Z,3.20
2018-01-29T23:21:13.148Z,3.60
2018-01-29T23:22:13.154Z,3.00
2018-01-29T23:23:13.186Z,3.50
2018-01-29T23:24:13.167Z,3.90
2018-01-29T23:25:13.197Z,3.40
2018-01-29T23:26:13.154Z,3.70
2018-01-29T23:27:13.172Z,3.10
2018-01-29T23:28:13.202Z,3.40
2018-01-29T23:29:13.176Z,3.60
2018-01-29T23:30:13.159Z,3.60
2018-01-29T23:31:13.146Z,3.70
2018-01-29T23:32:13.174Z,3.60
2018-01-29T23:33:13.171Z,4.40
2018-01-29T23:34:13.171Z,3.90
2018-01-29T23:35:13.167Z,3.80
2018-01-29T23:36:13.201Z,3.80
2018-01-29T23:37:13.186Z,4.40
2018-01-29T23:38:13.144Z,3.80
2018-01-29T23:39:13.150Z,3.70
2018-01-29T23:40:13.175Z,3.70
2018-01-29T23:41:13.188Z,3.70
2018-01-29T23:42:13.165Z,3.90
2018-01-29T23:43:13.175Z,4.20
2018-01-29T23:44:13.179Z,3.60
2018-01-29T23:45:13.151Z,3.80
2018-01-29T23:46:13.153Z,4.20
2018-01-29T23:47:13.218Z,3.70
2018-01-29T23:48:13.201Z,3.60
2018-01-29T23:49:13.188Z,4.00
2018-01-29T23:50:13.151Z,3.40
2018-01-29T23:51:13.159Z,3.40
2018-01-29T23:52:13.166Z,4.10
2018-01-29T23:53:13.158Z,3.70
2018-01-29T23:54:13.170Z,4.10
2018-01-29T23:55:13.199Z,3.80
2018-01-29T23:56:13.165Z,3.40
2018-01-29T23:57:13.194Z,3.90
2018-01-29T23:58:13.167Z,3.70
2018-01-29T23:59:13.184Z,4.10
